硫黄島飛行場の過去48時間の天気

硫黄島飛行場 (Iwojima)

現在時刻: 8/18 22:44 JST (8/18 13:44 UTC) 以下の時間は現地時間です。

過去48時間のMETAR気象情報
時間 風向 風速(m/s) 視程 気温(℃) 湿度(%) 気圧(hPa) 天気現象
18 21:00 北北東 2 10km以上 28 79 1014
18 20:00 東北東 2 10km以上 28 79 1014
18 19:00 東北東 3 10km以上 29 74 1013
18 18:00 北北東 3 10km以上 29 74 1013
18 17:00 東北東 3 10km以上 29 70 1012
18 16:00 北東 3 10km以上 30 66 1012
18 15:00 2 10km以上 29 74 1012
18 14:00 4 10km以上 31 66 1012 周辺でしゅう雨
18 13:00 4 10km以上 30 75 1012 周辺でしゅう雨
18 12:00 3 10km以上 31 66 1012
18 11:00 東北東 3 10km以上 30 70 1013
18 10:00 東南東 3 10km以上 29 74 1013
18 09:00 東南東 3 10km以上 30 75 1013
18 08:00 3 10km以上 29 79 1013
18 07:00 東北東 2 10km以上 28 84 1013
18 06:00 東北東 2 10km以上 27 84 1013
18 05:00 2 10km以上 27 89 1013
RJAW 181200Z 03004KT 9999 SCT015 28/24 Q1014 RMK 3CU015 A2995
RJAW 181100Z 06004KT 9999 SCT015 28/24 Q1014 RMK 3CU015 A2994
RJAW 181000Z 06005KT 9999 SCT015 29/24 Q1013 RMK 3CU015 A2994
RJAW 180900Z 02005KT 9999 FEW015 SCT/// 29/24 Q1013 RMK 2CU015 A2991
RJAW 180800Z 06005KT 9999 FEW015 SCT/// 29/23 Q1012 RMK 2CU015 A2990
RJAW 180700Z 05006KT 020V100 9999 FEW015 SCT/// 30/23 Q1012 RMK 2CU015 A2990
RJAW 180600Z 08004KT 9999 SCT015 29/24 Q1012 RMK 3CU015 A2990
RJAW 180500Z 08007KT 050V120 9999 VCSH SCT015 31/24 Q1012 RMK 3CU015 A2990
RJAW 180400Z 08008KT 040V140 9999 VCSH SCT015 30/25 Q1012 RMK 3CU015 A2990
RJAW 180300Z 09006KT 040V130 9999 FEW015 31/24 Q1012 RMK 2CU015 A2990
RJAW 180200Z 07005KT 020V110 9999 FEW015 30/24 Q1013 RMK 2CU015 A2991
RJAW 180100Z 11006KT 070V140 9999 FEW015 29/24 Q1013 RMK 2CU015 A2991
RJAW 180000Z 12005KT 070V170 9999 SCT015 30/25 Q1013 RMK 3CU015 A2992
RJAW 172300Z 09005KT 050V120 9999 FEW015 29/25 Q1013 RMK 2CU015 A2994
RJAW 172200Z 06003KT 030V090 9999 FEW015 28/25 Q1013 RMK 2CU015 A2993
RJAW 172100Z 07003KT 9999 FEW015 27/24 Q1013 RMK 2CU015 A2994
RJAW 172000Z 08003KT 9999 FEW015 27/25 Q1013 RMK 1CU015 A2994